sensor_id;sensor_type;location;lat;lon;timestamp;temperature;humidity
52189;DHT22;38162;45.926;13.608;2023-11-19T00:02:19;8.60;90.60
52189;DHT22;38162;45.926;13.608;2023-11-19T00:04:45;8.70;90.80
52189;DHT22;38162;45.926;13.608;2023-11-19T00:07:10;8.60;90.30
52189;DHT22;38162;45.926;13.608;2023-11-19T00:09:38;8.60;90.20
52189;DHT22;38162;45.926;13.608;2023-11-19T00:12:05;8.60;90.20
52189;DHT22;38162;45.926;13.608;2023-11-19T00:14:32;8.60;90.00
52189;DHT22;38162;45.926;13.608;2023-11-19T00:16:58;8.60;89.80
52189;DHT22;38162;45.926;13.608;2023-11-19T00:19:24;8.60;90.00
52189;DHT22;38162;45.926;13.608;2023-11-19T00:21:49;8.60;89.90
52189;DHT22;38162;45.926;13.608;2023-11-19T00:24:15;8.60;90.00
52189;DHT22;38162;45.926;13.608;2023-11-19T00:26:43;8.60;90.00
52189;DHT22;38162;45.926;13.608;2023-11-19T00:29:08;8.60;90.00
52189;DHT22;38162;45.926;13.608;2023-11-19T00:31:34;8.60;89.80
52189;DHT22;38162;45.926;13.608;2023-11-19T00:34:00;8.70;89.70
52189;DHT22;38162;45.926;13.608;2023-11-19T00:36:27;8.70;89.30
52189;DHT22;38162;45.926;13.608;2023-11-19T00:38:54;8.60;88.70
52189;DHT22;38162;45.926;13.608;2023-11-19T00:41:19;8.70;88.50
52189;DHT22;38162;45.926;13.608;2023-11-19T00:43:45;8.60;88.20
52189;DHT22;38162;45.926;13.608;2023-11-19T00:46:11;8.60;89.00
52189;DHT22;38162;45.926;13.608;2023-11-19T00:48:37;8.60;89.20
52189;DHT22;38162;45.926;13.608;2023-11-19T00:51:03;8.60;89.00
52189;DHT22;38162;45.926;13.608;2023-11-19T00:53:30;8.60;89.60
52189;DHT22;38162;45.926;13.608;2023-11-19T00:55:56;8.60;89.00
52189;DHT22;38162;45.926;13.608;2023-11-19T00:58:22;8.60;88.90
52189;DHT22;38162;45.926;13.608;2023-11-19T01:00:48;8.60;89.30
52189;DHT22;38162;45.926;13.608;2023-11-19T01:03:13;8.60;88.80
52189;DHT22;38162;45.926;13.608;2023-11-19T01:05:41;8.50;88.90
52189;DHT22;38162;45.926;13.608;2023-11-19T01:08:08;8.50;89.20
52189;DHT22;38162;45.926;13.608;2023-11-19T01:10:36;8.50;89.30
52189;DHT22;38162;45.926;13.608;2023-11-19T01:13:02;8.50;89.80
52189;DHT22;38162;45.926;13.608;2023-11-19T01:15:31;8.50;89.80
52189;DHT22;38162;45.926;13.608;2023-11-19T01:17:57;8.50;89.90
52189;DHT22;38162;45.926;13.608;2023-11-19T01:20:23;8.50;89.90
52189;DHT22;38162;45.926;13.608;2023-11-19T01:22:49;8.40;89.60
52189;DHT22;38162;45.926;13.608;2023-11-19T01:25:15;8.40;89.60
52189;DHT22;38162;45.926;13.608;2023-11-19T01:27:41;8.40;89.40
52189;DHT22;38162;45.926;13.608;2023-11-19T01:30:07;8.50;89.60
52189;DHT22;38162;45.926;13.608;2023-11-19T01:32:36;8.40;89.90
52189;DHT22;38162;45.926;13.608;2023-11-19T01:35:03;8.30;90.30
52189;DHT22;38162;45.926;13.608;2023-11-19T01:37:29;8.30;90.60
52189;DHT22;38162;45.926;13.608;2023-11-19T01:39:57;8.20;90.90
52189;DHT22;38162;45.926;13.608;2023-11-19T01:42:23;8.10;91.20
52189;DHT22;38162;45.926;13.608;2023-11-19T01:45:00;8.10;91.40
52189;DHT22;38162;45.926;13.608;2023-11-19T01:47:30;8.10;91.60
52189;DHT22;38162;45.926;13.608;2023-11-19T01:49:57;8.00;91.70
52189;DHT22;38162;45.926;13.608;2023-11-19T01:52:23;8.00;91.90
52189;DHT22;38162;45.926;13.608;2023-11-19T01:54:50;8.00;92.00
52189;DHT22;38162;45.926;13.608;2023-11-19T01:57:17;8.00;92.00
52189;DHT22;38162;45.926;13.608;2023-11-19T01:59:44;7.90;91.90
52189;DHT22;38162;45.926;13.608;2023-11-19T02:02:10;7.90;91.90
52189;DHT22;38162;45.926;13.608;2023-11-19T02:04:36;7.90;92.00
52189;DHT22;38162;45.926;13.608;2023-11-19T02:07:01;7.90;92.10
52189;DHT22;38162;45.926;13.608;2023-11-19T02:09:27;7.80;92.20
52189;DHT22;38162;45.926;13.608;2023-11-19T02:11:54;7.80;92.10
52189;DHT22;38162;45.926;13.608;2023-11-19T02:14:24;7.90;92.10
52189;DHT22;38162;45.926;13.608;2023-11-19T02:16:51;7.80;91.90
52189;DHT22;38162;45.926;13.608;2023-11-19T02:19:20;7.80;91.90
52189;DHT22;38162;45.926;13.608;2023-11-19T02:21:46;7.80;91.70
52189;DHT22;38162;45.926;13.608;2023-11-19T02:24:12;7.80;91.80
52189;DHT22;38162;45.926;13.608;2023-11-19T02:26:44;7.90;91.80
52189;DHT22;38162;45.926;13.608;2023-11-19T02:29:11;7.90;91.30
52189;DHT22;38162;45.926;13.608;2023-11-19T02:31:38;7.90;91.10
52189;DHT22;38162;45.926;13.608;2023-11-19T02:34:04;7.90;91.50
52189;DHT22;38162;45.926;13.608;2023-11-19T02:36:31;7.80;91.60
52189;DHT22;38162;45.926;13.608;2023-11-19T02:38:58;7.80;92.00
52189;DHT22;38162;45.926;13.608;2023-11-19T02:41:23;7.70;91.90
52189;DHT22;38162;45.926;13.608;2023-11-19T02:43:49;7.70;91.90
52189;DHT22;38162;45.926;13.608;2023-11-19T02:46:15;7.70;92.00
52189;DHT22;38162;45.926;13.608;2023-11-19T02:48:43;7.70;92.00
52189;DHT22;38162;45.926;13.608;2023-11-19T02:51:10;7.70;92.00
52189;DHT22;38162;45.926;13.608;2023-11-19T02:53:36;7.60;92.10
52189;DHT22;38162;45.926;13.608;2023-11-19T02:56:06;7.60;92.20
52189;DHT22;38162;45.926;13.608;2023-11-19T02:58:37;7.60;92.40
52189;DHT22;38162;45.926;13.608;2023-11-19T03:01:04;7.50;92.60
52189;DHT22;38162;45.926;13.608;2023-11-19T03:03:38;7.50;92.60
52189;DHT22;38162;45.926;13.608;2023-11-19T03:06:06;7.50;92.80
52189;DHT22;38162;45.926;13.608;2023-11-19T03:08:35;7.50;92.80
52189;DHT22;38162;45.926;13.608;2023-11-19T03:11:01;7.40;92.80
52189;DHT22;38162;45.926;13.608;2023-11-19T03:13:27;7.40;92.90
52189;DHT22;38162;45.926;13.608;2023-11-19T03:15:53;7.40;92.90
52189;DHT22;38162;45.926;13.608;2023-11-19T03:18:21;7.40;93.00
52189;DHT22;38162;45.926;13.608;2023-11-19T03:20:47;7.40;93.10
52189;DHT22;38162;45.926;13.608;2023-11-19T03:23:13;7.40;93.10
52189;DHT22;38162;45.926;13.608;2023-11-19T03:25:39;7.40;93.30
52189;DHT22;38162;45.926;13.608;2023-11-19T03:28:04;7.40;93.30
52189;DHT22;38162;45.926;13.608;2023-11-19T03:30:31;7.30;93.30
52189;DHT22;38162;45.926;13.608;2023-11-19T03:32:57;7.30;93.20
52189;DHT22;38162;45.926;13.608;2023-11-19T03:35:23;7.30;93.20
52189;DHT22;38162;45.926;13.608;2023-11-19T03:37:50;7.30;93.40
52189;DHT22;38162;45.926;13.608;2023-11-19T03:40:17;7.30;93.30
52189;DHT22;38162;45.926;13.608;2023-11-19T03:42:47;7.20;93.30
52189;DHT22;38162;45.926;13.608;2023-11-19T03:45:13;7.20;93.40
52189;DHT22;38162;45.926;13.608;2023-11-19T03:47:41;7.20;93.50
52189;DHT22;38162;45.926;13.608;2023-11-19T03:50:07;7.20;93.40
52189;DHT22;38162;45.926;13.608;2023-11-19T03:52:34;7.20;93.40
52189;DHT22;38162;45.926;13.608;2023-11-19T03:55:00;7.10;93.70
52189;DHT22;38162;45.926;13.608;2023-11-19T03:57:27;7.10;93.80
52189;DHT22;38162;45.926;13.608;2023-11-19T03:59:53;7.10;94.00
52189;DHT22;38162;45.926;13.608;2023-11-19T04:02:21;7.10;93.90
52189;DHT22;38162;45.926;13.608;2023-11-19T04:04:46;7.00;94.00
52189;DHT22;38162;45.926;13.608;2023-11-19T04:07:13;7.10;94.10
52189;DHT22;38162;45.926;13.608;2023-11-19T04:09:39;7.10;94.10
52189;DHT22;38162;45.926;13.608;2023-11-19T04:12:05;7.10;94.20
52189;DHT22;38162;45.926;13.608;2023-11-19T04:14:31;7.00;94.40
52189;DHT22;38162;45.926;13.608;2023-11-19T04:16:57;7.00;94.60
52189;DHT22;38162;45.926;13.608;2023-11-19T04:19:22;7.00;94.70
52189;DHT22;38162;45.926;13.608;2023-11-19T04:21:48;7.00;94.70
52189;DHT22;38162;45.926;13.608;2023-11-19T04:24:14;7.00;94.70
52189;DHT22;38162;45.926;13.608;2023-11-19T04:26:43;7.00;94.70
52189;DHT22;38162;45.926;13.608;2023-11-19T04:29:14;7.00;94.80
52189;DHT22;38162;45.926;13.608;2023-11-19T04:31:43;7.10;94.80
52189;DHT22;38162;45.926;13.608;2023-11-19T04:34:12;7.10;95.10
52189;DHT22;38162;45.926;13.608;2023-11-19T04:36:38;7.10;95.20
52189;DHT22;38162;45.926;13.608;2023-11-19T04:39:04;7.10;95.20
52189;DHT22;38162;45.926;13.608;2023-11-19T04:41:47;7.10;95.10
52189;DHT22;38162;45.926;13.608;2023-11-19T04:44:17;7.10;95.20
52189;DHT22;38162;45.926;13.608;2023-11-19T04:46:43;7.10;95.20
52189;DHT22;38162;45.926;13.608;2023-11-19T04:49:10;7.10;95.10
52189;DHT22;38162;45.926;13.608;2023-11-19T04:51:42;7.10;95.20
52189;DHT22;38162;45.926;13.608;2023-11-19T04:54:08;7.10;95.30
52189;DHT22;38162;45.926;13.608;2023-11-19T04:56:35;7.10;95.30
52189;DHT22;38162;45.926;13.608;2023-11-19T04:59:03;7.20;95.20
52189;DHT22;38162;45.926;13.608;2023-11-19T05:01:29;7.10;95.10
52189;DHT22;38162;45.926;13.608;2023-11-19T05:03:56;7.10;94.90
52189;DHT22;38162;45.926;13.608;2023-11-19T05:06:26;7.10;94.90
52189;DHT22;38162;45.926;13.608;2023-11-19T05:08:52;7.10;95.00
52189;DHT22;38162;45.926;13.608;2023-11-19T05:11:19;7.10;95.00
52189;DHT22;38162;45.926;13.608;2023-11-19T05:13:45;7.00;95.00
52189;DHT22;38162;45.926;13.608;2023-11-19T05:16:11;7.10;95.20
52189;DHT22;38162;45.926;13.608;2023-11-19T05:18:41;7.00;95.30
52189;DHT22;38162;45.926;13.608;2023-11-19T05:21:07;7.00;95.30
52189;DHT22;38162;45.926;13.608;2023-11-19T05:23:33;7.00;95.40
52189;DHT22;38162;45.926;13.608;2023-11-19T05:26:02;7.10;95.50
52189;DHT22;38162;45.926;13.608;2023-11-19T05:28:28;7.10;95.60
52189;DHT22;38162;45.926;13.608;2023-11-19T05:30:54;7.10;95.90
52189;DHT22;38162;45.926;13.608;2023-11-19T05:33:21;7.00;96.20
52189;DHT22;38162;45.926;13.608;2023-11-19T05:35:46;7.10;96.30
52189;DHT22;38162;45.926;13.608;2023-11-19T05:38:12;7.10;96.30
52189;DHT22;38162;45.926;13.608;2023-11-19T05:40:38;7.10;96.30
52189;DHT22;38162;45.926;13.608;2023-11-19T05:43:04;7.10;96.50
52189;DHT22;38162;45.926;13.608;2023-11-19T05:45:31;7.10;96.40
52189;DHT22;38162;45.926;13.608;2023-11-19T05:47:57;7.20;96.40
52189;DHT22;38162;45.926;13.608;2023-11-19T05:50:23;7.10;96.30
52189;DHT22;38162;45.926;13.608;2023-11-19T05:52:49;7.20;96.40
52189;DHT22;38162;45.926;13.608;2023-11-19T05:55:15;7.20;96.40
52189;DHT22;38162;45.926;13.608;2023-11-19T05:57:41;7.20;96.40
52189;DHT22;38162;45.926;13.608;2023-11-19T06:00:07;7.20;96.40
52189;DHT22;38162;45.926;13.608;2023-11-19T06:02:34;7.20;96.40
52189;DHT22;38162;45.926;13.608;2023-11-19T06:05:00;7.20;96.60
52189;DHT22;38162;45.926;13.608;2023-11-19T06:07:27;7.20;96.20
52189;DHT22;38162;45.926;13.608;2023-11-19T06:09:53;7.20;96.00
52189;DHT22;38162;45.926;13.608;2023-11-19T06:12:19;7.20;96.00
52189;DHT22;38162;45.926;13.608;2023-11-19T06:14:45;7.20;96.00
52189;DHT22;38162;45.926;13.608;2023-11-19T06:17:10;7.20;95.90
52189;DHT22;38162;45.926;13.608;2023-11-19T06:19:37;7.20;95.80
52189;DHT22;38162;45.926;13.608;2023-11-19T06:22:05;7.20;95.60
52189;DHT22;38162;45.926;13.608;2023-11-19T06:24:32;7.30;95.60
52189;DHT22;38162;45.926;13.608;2023-11-19T06:26:57;7.30;95.70
52189;DHT22;38162;45.926;13.608;2023-11-19T06:29:23;7.30;95.70
52189;DHT22;38162;45.926;13.608;2023-11-19T06:31:50;7.30;95.50
52189;DHT22;38162;45.926;13.608;2023-11-19T06:34:16;7.30;95.40
52189;DHT22;38162;45.926;13.608;2023-11-19T06:36:41;7.30;95.60
52189;DHT22;38162;45.926;13.608;2023-11-19T06:39:10;7.30;95.80
52189;DHT22;38162;45.926;13.608;2023-11-19T06:41:38;7.40;96.00
52189;DHT22;38162;45.926;13.608;2023-11-19T06:44:05;7.40;96.20
52189;DHT22;38162;45.926;13.608;2023-11-19T06:46:31;7.40;96.20
52189;DHT22;38162;45.926;13.608;2023-11-19T06:48:57;7.40;96.30
52189;DHT22;38162;45.926;13.608;2023-11-19T06:51:23;7.40;96.30
52189;DHT22;38162;45.926;13.608;2023-11-19T06:53:50;7.40;96.30
52189;DHT22;38162;45.926;13.608;2023-11-19T06:56:20;7.40;96.40
52189;DHT22;38162;45.926;13.608;2023-11-19T06:58:47;7.40;96.70
52189;DHT22;38162;45.926;13.608;2023-11-19T07:01:14;7.40;96.90
52189;DHT22;38162;45.926;13.608;2023-11-19T07:03:40;7.40;96.80
52189;DHT22;38162;45.926;13.608;2023-11-19T07:06:06;7.30;96.80
52189;DHT22;38162;45.926;13.608;2023-11-19T07:08:32;7.30;97.20
52189;DHT22;38162;45.926;13.608;2023-11-19T07:10:58;7.30;97.50
52189;DHT22;38162;45.926;13.608;2023-11-19T07:13:23;7.30;97.70
52189;DHT22;38162;45.926;13.608;2023-11-19T07:15:49;7.30;97.70
52189;DHT22;38162;45.926;13.608;2023-11-19T07:18:15;7.30;97.70
52189;DHT22;38162;45.926;13.608;2023-11-19T07:20:41;7.40;97.70
52189;DHT22;38162;45.926;13.608;2023-11-19T07:23:07;7.40;97.70
52189;DHT22;38162;45.926;13.608;2023-11-19T07:25:34;7.40;97.70
52189;DHT22;38162;45.926;13.608;2023-11-19T07:28:01;7.40;97.70
52189;DHT22;38162;45.926;13.608;2023-11-19T07:30:30;7.40;97.80
52189;DHT22;38162;45.926;13.608;2023-11-19T07:32:56;7.40;97.80
52189;DHT22;38162;45.926;13.608;2023-11-19T07:35:21;7.40;98.00
52189;DHT22;38162;45.926;13.608;2023-11-19T07:37:47;7.50;98.20
52189;DHT22;38162;45.926;13.608;2023-11-19T07:40:14;7.50;98.30
52189;DHT22;38162;45.926;13.608;2023-11-19T07:42:40;7.50;98.50
52189;DHT22;38162;45.926;13.608;2023-11-19T07:45:06;7.50;98.50
52189;DHT22;38162;45.926;13.608;2023-11-19T07:47:32;7.50;98.80
52189;DHT22;38162;45.926;13.608;2023-11-19T07:49:58;7.50;98.60
52189;DHT22;38162;45.926;13.608;2023-11-19T07:52:24;7.50;98.70
52189;DHT22;38162;45.926;13.608;2023-11-19T07:54:49;7.50;98.90
52189;DHT22;38162;45.926;13.608;2023-11-19T07:57:15;7.50;99.10
52189;DHT22;38162;45.926;13.608;2023-11-19T07:59:41;7.50;99.20
52189;DHT22;38162;45.926;13.608;2023-11-19T08:02:07;7.50;99.10
52189;DHT22;38162;45.926;13.608;2023-11-19T08:04:32;7.50;99.20
52189;DHT22;38162;45.926;13.608;2023-11-19T08:06:59;7.60;99.60
52189;DHT22;38162;45.926;13.608;2023-11-19T08:09:24;7.50;99.50
52189;DHT22;38162;45.926;13.608;2023-11-19T08:11:50;7.60;99.60
52189;DHT22;38162;45.926;13.608;2023-11-19T08:14:16;7.60;99.50
52189;DHT22;38162;45.926;13.608;2023-11-19T08:16:42;7.70;99.50
52189;DHT22;38162;45.926;13.608;2023-11-19T08:19:08;7.70;99.50
52189;DHT22;38162;45.926;13.608;2023-11-19T08:21:34;7.70;99.40
52189;DHT22;38162;45.926;13.608;2023-11-19T08:23:59;7.70;99.30
52189;DHT22;38162;45.926;13.608;2023-11-19T08:26:25;7.70;99.30
52189;DHT22;38162;45.926;13.608;2023-11-19T08:28:51;7.80;99.20
52189;DHT22;38162;45.926;13.608;2023-11-19T08:31:17;7.80;99.00
52189;DHT22;38162;45.926;13.608;2023-11-19T08:33:43;7.80;99.00
52189;DHT22;38162;45.926;13.608;2023-11-19T08:36:14;7.80;99.10
52189;DHT22;38162;45.926;13.608;2023-11-19T08:38:40;7.90;99.40
52189;DHT22;38162;45.926;13.608;2023-11-19T08:41:06;8.00;99.30
52189;DHT22;38162;45.926;13.608;2023-11-19T08:43:31;8.00;99.50
52189;DHT22;38162;45.926;13.608;2023-11-19T08:45:57;8.00;99.60
52189;DHT22;38162;45.926;13.608;2023-11-19T08:48:23;8.00;99.70
52189;DHT22;38162;45.926;13.608;2023-11-19T08:50:49;8.10;99.80
52189;DHT22;38162;45.926;13.608;2023-11-19T08:53:15;8.10;99.90
52189;DHT22;38162;45.926;13.608;2023-11-19T08:55:41;8.10;99.90
52189;DHT22;38162;45.926;13.608;2023-11-19T08:58:06;8.20;99.80
52189;DHT22;38162;45.926;13.608;2023-11-19T09:00:32;8.20;99.80
52189;DHT22;38162;45.926;13.608;2023-11-19T09:02:58;8.30;99.90
52189;DHT22;38162;45.926;13.608;2023-11-19T09:05:24;8.30;99.90
52189;DHT22;38162;45.926;13.608;2023-11-19T09:07:50;8.30;99.80
52189;DHT22;38162;45.926;13.608;2023-11-19T09:10:16;8.40;99.70
52189;DHT22;38162;45.926;13.608;2023-11-19T09:12:41;8.40;99.90
52189;DHT22;38162;45.926;13.608;2023-11-19T09:15:08;8.50;99.60
52189;DHT22;38162;45.926;13.608;2023-11-19T09:17:36;8.40;99.40
52189;DHT22;38162;45.926;13.608;2023-11-19T09:20:02;8.50;99.10
52189;DHT22;38162;45.926;13.608;2023-11-19T09:22:27;8.60;99.00
52189;DHT22;38162;45.926;13.608;2023-11-19T09:24:53;8.60;98.90
52189;DHT22;38162;45.926;13.608;2023-11-19T09:27:19;8.60;98.80
52189;DHT22;38162;45.926;13.608;2023-11-19T09:29:46;8.70;98.90
52189;DHT22;38162;45.926;13.608;2023-11-19T09:32:13;8.70;99.00
52189;DHT22;38162;45.926;13.608;2023-11-19T09:34:39;8.80;99.00
52189;DHT22;38162;45.926;13.608;2023-11-19T09:37:05;8.80;99.00
52189;DHT22;38162;45.926;13.608;2023-11-19T09:39:31;8.80;99.30
52189;DHT22;38162;45.926;13.608;2023-11-19T09:41:56;8.80;99.20
52189;DHT22;38162;45.926;13.608;2023-11-19T09:44:23;8.90;99.20
52189;DHT22;38162;45.926;13.608;2023-11-19T09:46:49;8.90;99.20
52189;DHT22;38162;45.926;13.608;2023-11-19T09:49:17;8.90;99.30
52189;DHT22;38162;45.926;13.608;2023-11-19T09:51:46;8.90;99.20
52189;DHT22;38162;45.926;13.608;2023-11-19T09:54:12;8.90;99.20
52189;DHT22;38162;45.926;13.608;2023-11-19T09:56:39;9.00;99.20
52189;DHT22;38162;45.926;13.608;2023-11-19T09:59:05;9.00;99.30
52189;DHT22;38162;45.926;13.608;2023-11-19T10:01:31;9.00;99.70
52189;DHT22;38162;45.926;13.608;2023-11-19T10:03:57;9.10;99.60
52189;DHT22;38162;45.926;13.608;2023-11-19T10:06:25;9.10;99.40
52189;DHT22;38162;45.926;13.608;2023-11-19T10:08:52;9.10;99.30
52189;DHT22;38162;45.926;13.608;2023-11-19T10:11:18;9.20;99.10
52189;DHT22;38162;45.926;13.608;2023-11-19T10:13:44;9.20;98.90
52189;DHT22;38162;45.926;13.608;2023-11-19T10:16:13;9.30;98.70
52189;DHT22;38162;45.926;13.608;2023-11-19T10:18:46;9.40;98.60
52189;DHT22;38162;45.926;13.608;2023-11-19T10:21:13;9.40;98.50
52189;DHT22;38162;45.926;13.608;2023-11-19T10:23:50;9.50;98.30
52189;DHT22;38162;45.926;13.608;2023-11-19T10:26:17;9.50;98.20
52189;DHT22;38162;45.926;13.608;2023-11-19T10:28:43;9.60;98.10
52189;DHT22;38162;45.926;13.608;2023-11-19T10:31:12;9.60;98.20
52189;DHT22;38162;45.926;13.608;2023-11-19T10:33:38;9.60;98.30
52189;DHT22;38162;45.926;13.608;2023-11-19T10:36:04;9.60;98.30
52189;DHT22;38162;45.926;13.608;2023-11-19T10:38:30;9.70;98.20
52189;DHT22;38162;45.926;13.608;2023-11-19T10:40:56;9.70;98.10
52189;DHT22;38162;45.926;13.608;2023-11-19T10:43:22;9.80;98.20
52189;DHT22;38162;45.926;13.608;2023-11-19T10:45:49;9.80;98.20
52189;DHT22;38162;45.926;13.608;2023-11-19T10:48:15;9.90;98.30
52189;DHT22;38162;45.926;13.608;2023-11-19T10:50:42;9.90;98.30
52189;DHT22;38162;45.926;13.608;2023-11-19T10:53:11;9.90;98.40
52189;DHT22;38162;45.926;13.608;2023-11-19T10:55:39;9.90;98.30
52189;DHT22;38162;45.926;13.608;2023-11-19T10:58:09;10.00;98.50
52189;DHT22;38162;45.926;13.608;2023-11-19T11:00:48;10.00;98.90
52189;DHT22;38162;45.926;13.608;2023-11-19T11:03:24;10.00;99.00
52189;DHT22;38162;45.926;13.608;2023-11-19T11:05:51;10.00;99.10
52189;DHT22;38162;45.926;13.608;2023-11-19T11:08:18;10.10;99.10
52189;DHT22;38162;45.926;13.608;2023-11-19T11:10:48;10.10;99.10
52189;DHT22;38162;45.926;13.608;2023-11-19T11:13:17;10.20;99.10
52189;DHT22;38162;45.926;13.608;2023-11-19T11:15:44;10.40;98.90
52189;DHT22;38162;45.926;13.608;2023-11-19T11:18:12;10.40;98.70
52189;DHT22;38162;45.926;13.608;2023-11-19T11:20:39;10.50;98.50
52189;DHT22;38162;45.926;13.608;2023-11-19T11:37:46;11.10;98.00
52189;DHT22;38162;45.926;13.608;2023-11-19T11:40:15;11.10;97.90
52189;DHT22;38162;45.926;13.608;2023-11-19T11:42:41;11.20;97.80
52189;DHT22;38162;45.926;13.608;2023-11-19T11:45:09;11.30;97.90
52189;DHT22;38162;45.926;13.608;2023-11-19T11:50:14;11.50;98.00
52189;DHT22;38162;45.926;13.608;2023-11-19T11:58:18;11.70;98.00
52189;DHT22;38162;45.926;13.608;2023-11-19T12:00:44;11.80;98.20
52189;DHT22;38162;45.926;13.608;2023-11-19T12:03:11;11.90;98.40
52189;DHT22;38162;45.926;13.608;2023-11-19T12:05:44;11.90;98.20
52189;DHT22;38162;45.926;13.608;2023-11-19T12:08:11;12.00;98.20
52189;DHT22;38162;45.926;13.608;2023-11-19T12:10:53;12.00;98.00
52189;DHT22;38162;45.926;13.608;2023-11-19T12:13:21;12.10;98.10
52189;DHT22;38162;45.926;13.608;2023-11-19T12:18:28;12.20;98.30
52189;DHT22;38162;45.926;13.608;2023-11-19T12:20:55;12.20;98.10
52189;DHT22;38162;45.926;13.608;2023-11-19T12:23:22;12.20;98.00
52189;DHT22;38162;45.926;13.608;2023-11-19T12:25:48;12.20;98.10
52189;DHT22;38162;45.926;13.608;2023-11-19T12:28:15;12.20;98.20
52189;DHT22;38162;45.926;13.608;2023-11-19T12:30:44;12.10;98.40
52189;DHT22;38162;45.926;13.608;2023-11-19T12:33:11;12.00;98.60
52189;DHT22;38162;45.926;13.608;2023-11-19T12:35:44;12.00;98.80
52189;DHT22;38162;45.926;13.608;2023-11-19T12:38:20;11.90;99.00
52189;DHT22;38162;45.926;13.608;2023-11-19T12:41:03;11.90;99.20
52189;DHT22;38162;45.926;13.608;2023-11-19T12:43:29;11.90;99.50
52189;DHT22;38162;45.926;13.608;2023-11-19T12:45:55;11.90;99.70
52189;DHT22;38162;45.926;13.608;2023-11-19T12:48:20;11.90;99.90
52189;DHT22;38162;45.926;13.608;2023-11-19T12:50:58;11.90;99.90
52189;DHT22;38162;45.926;13.608;2023-11-19T12:53:27;11.90;99.90
52189;DHT22;38162;45.926;13.608;2023-11-19T12:55:54;11.90;99.90
52189;DHT22;38162;45.926;13.608;2023-11-19T12:58:35;11.90;99.90
52189;DHT22;38162;45.926;13.608;2023-11-19T13:01:06;11.90;99.90
52189;DHT22;38162;45.926;13.608;2023-11-19T13:03:33;11.90;99.90
52189;DHT22;38162;45.926;13.608;2023-11-19T13:06:03;12.00;99.90
52189;DHT22;38162;45.926;13.608;2023-11-19T13:08:39;12.00;99.90
52189;DHT22;38162;45.926;13.608;2023-11-19T13:11:06;12.10;99.90
52189;DHT22;38162;45.926;13.608;2023-11-19T13:13:33;12.10;99.90
52189;DHT22;38162;45.926;13.608;2023-11-19T13:16:15;12.20;99.90
52189;DHT22;38162;45.926;13.608;2023-11-19T13:18:41;12.20;99.90
52189;DHT22;38162;45.926;13.608;2023-11-19T13:21:07;12.20;99.80
52189;DHT22;38162;45.926;13.608;2023-11-19T13:23:32;12.30;99.20
52189;DHT22;38162;45.926;13.608;2023-11-19T13:25:58;12.20;98.10
52189;DHT22;38162;45.926;13.608;2023-11-19T13:28:24;12.30;97.00
52189;DHT22;38162;45.926;13.608;2023-11-19T13:30:51;12.30;94.00
52189;DHT22;38162;45.926;13.608;2023-11-19T13:33:19;12.20;94.00
52189;DHT22;38162;45.926;13.608;2023-11-19T13:35:44;12.20;93.90
52189;DHT22;38162;45.926;13.608;2023-11-19T13:38:10;12.20;93.90
52189;DHT22;38162;45.926;13.608;2023-11-19T13:40:36;12.20;93.70
52189;DHT22;38162;45.926;13.608;2023-11-19T13:43:01;12.20;93.70
52189;DHT22;38162;45.926;13.608;2023-11-19T13:45:27;12.20;93.60
52189;DHT22;38162;45.926;13.608;2023-11-19T13:47:53;12.20;93.40
52189;DHT22;38162;45.926;13.608;2023-11-19T13:50:19;12.20;93.40
52189;DHT22;38162;45.926;13.608;2023-11-19T13:52:45;12.20;93.50
52189;DHT22;38162;45.926;13.608;2023-11-19T13:55:12;12.20;93.80
52189;DHT22;38162;45.926;13.608;2023-11-19T13:57:39;12.20;94.20
52189;DHT22;38162;45.926;13.608;2023-11-19T14:00:10;12.20;94.50
52189;DHT22;38162;45.926;13.608;2023-11-19T14:02:39;12.20;94.60
52189;DHT22;38162;45.926;13.608;2023-11-19T14:05:06;12.20;94.60
52189;DHT22;38162;45.926;13.608;2023-11-19T14:07:32;12.20;94.70
52189;DHT22;38162;45.926;13.608;2023-11-19T14:09:58;12.20;94.80
52189;DHT22;38162;45.926;13.608;2023-11-19T14:12:24;12.20;94.90
52189;DHT22;38162;45.926;13.608;2023-11-19T14:14:50;12.20;95.10
52189;DHT22;38162;45.926;13.608;2023-11-19T14:17:15;12.20;95.40
52189;DHT22;38162;45.926;13.608;2023-11-19T14:19:42;12.20;95.60
52189;DHT22;38162;45.926;13.608;2023-11-19T14:22:08;12.20;95.80
52189;DHT22;38162;45.926;13.608;2023-11-19T14:24:37;12.20;95.90
52189;DHT22;38162;45.926;13.608;2023-11-19T14:27:03;12.20;96.10
52189;DHT22;38162;45.926;13.608;2023-11-19T14:29:29;12.20;96.30
52189;DHT22;38162;45.926;13.608;2023-11-19T14:31:57;12.20;96.40
52189;DHT22;38162;45.926;13.608;2023-11-19T14:34:24;12.20;96.50
52189;DHT22;38162;45.926;13.608;2023-11-19T14:36:52;12.20;96.50
52189;DHT22;38162;45.926;13.608;2023-11-19T14:39:19;12.20;96.60
52189;DHT22;38162;45.926;13.608;2023-11-19T14:41:45;12.20;96.60
52189;DHT22;38162;45.926;13.608;2023-11-19T14:44:11;12.10;96.70
52189;DHT22;38162;45.926;13.608;2023-11-19T14:46:36;12.10;96.90
52189;DHT22;38162;45.926;13.608;2023-11-19T14:49:02;12.10;96.90
52189;DHT22;38162;45.926;13.608;2023-11-19T14:51:30;12.00;97.00
52189;DHT22;38162;45.926;13.608;2023-11-19T14:53:55;12.10;97.10
52189;DHT22;38162;45.926;13.608;2023-11-19T14:56:21;12.00;97.20
52189;DHT22;38162;45.926;13.608;2023-11-19T14:58:47;12.00;97.40
52189;DHT22;38162;45.926;13.608;2023-11-19T15:01:16;12.00;97.50
52189;DHT22;38162;45.926;13.608;2023-11-19T15:03:41;12.00;97.60
52189;DHT22;38162;45.926;13.608;2023-11-19T15:06:07;12.00;97.70
52189;DHT22;38162;45.926;13.608;2023-11-19T15:08:33;11.90;97.80
52189;DHT22;38162;45.926;13.608;2023-11-19T15:10:59;11.90;98.00
52189;DHT22;38162;45.926;13.608;2023-11-19T15:13:27;11.90;98.10
52189;DHT22;38162;45.926;13.608;2023-11-19T15:15:53;11.90;98.20
52189;DHT22;38162;45.926;13.608;2023-11-19T15:18:20;11.90;98.30
52189;DHT22;38162;45.926;13.608;2023-11-19T15:20:46;11.80;98.50
52189;DHT22;38162;45.926;13.608;2023-11-19T15:23:15;11.80;98.60
52189;DHT22;38162;45.926;13.608;2023-11-19T15:25:41;11.80;98.70
52189;DHT22;38162;45.926;13.608;2023-11-19T15:28:07;11.80;98.90
52189;DHT22;38162;45.926;13.608;2023-11-19T15:30:33;11.70;99.00
52189;DHT22;38162;45.926;13.608;2023-11-19T15:32:59;11.70;99.40
52189;DHT22;38162;45.926;13.608;2023-11-19T15:35:25;11.70;99.20
52189;DHT22;38162;45.926;13.608;2023-11-19T15:37:51;11.60;99.30
52189;DHT22;38162;45.926;13.608;2023-11-19T15:40:17;11.60;99.50
52189;DHT22;38162;45.926;13.608;2023-11-19T15:42:44;11.60;99.60
52189;DHT22;38162;45.926;13.608;2023-11-19T15:45:11;11.60;99.80
52189;DHT22;38162;45.926;13.608;2023-11-19T15:47:37;11.50;99.80
52189;DHT22;38162;45.926;13.608;2023-11-19T15:50:05;11.50;99.80
52189;DHT22;38162;45.926;13.608;2023-11-19T15:52:31;11.50;99.80